Beltdiep — PBYF — position and weather

sailwx.info

Track history (hours):
 
Tides and Currents Weather Stations Pressure Air Temp Water Temp Dewpoint Dewpoint Depression Visibility Wind Speed Wind Dir Waves Ship Positions

Beltdiep

Last reported at 2016-Oct-01 20:31 UTC. Time now 2016-Oct-01 20:42 UTC.
Position N 46°30' W 001°48'.

Length 107 m; draft 5.5 m.

Type: Cargo ship. MMSI: 246671000.

Date/timePositionNaut miles runAvg speedWind from/ knotsBaromVisibWave heightAir tempDewpointWater temp
2016-Oct-01 20:31N 46°30' W 001°48'0 0.0
2016-Oct-01 15:31N 46°30' W 001°48'0 0.0
2016-Oct-01 14:31N 46°30' W 001°48'0 0.0
2016-Oct-01 13:31N 46°30' W 001°48'0 0.0
2016-Oct-01 04:33N 46°30' W 001°48'0 0.0
2016-Oct-01 03:33N 46°30' W 001°48'0 0.0
2016-Oct-01 00:33N 46°30' W 001°48'0 0.0
2016-Sep-30 22:33N 46°30' W 001°48'0 0.0
2016-Sep-30 20:32N 46°30' W 001°48'0 0.0
2016-Sep-30 17:32N 46°30' W 001°48'0 0.0
2016-Sep-30 16:32N 46°30' W 001°48'0 0.0
2016-Sep-30 14:32N 46°30' W 001°48'0 0.0
2016-Sep-30 13:32N 46°30' W 001°48'0 0.0
2016-Sep-30 10:32N 46°30' W 001°48'0 0.0
2016-Sep-30 08:32N 46°30' W 001°48'0 0.0
2016-Sep-30 06:32N 46°30' W 001°48'0 0.0
2016-Sep-30 03:32N 46°30' W 001°48'0 0.0
2016-Sep-30 02:32N 46°30' W 001°48'0 0.0
2016-Sep-29 23:32N 46°30' W 001°48'0 0.0
2016-Sep-29 21:32N 46°30' W 001°48'0 0.0
2016-Sep-29 20:32N 46°30' W 001°48'0 0.0
2016-Sep-29 19:32N 46°30' W 001°48'0 0.0
2016-Sep-29 16:32N 46°30' W 001°48'0 0.0
2016-Sep-29 15:32N 46°30' W 001°48'0 0.0
2016-Sep-29 14:32N 46°30' W 001°48'0 0.0
2016-Sep-29 13:32N 46°30' W 001°48'0 0.0
2016-Sep-29 08:32N 46°30' W 001°48'0 0.0
2016-Sep-29 07:32N 46°30' W 001°48'8 1.1
2016-Sep-29 00:33N 46°24' W 001°54'20 6.8
2016-Sep-28 21:32N 46°18' W 002°23'15 7.4
2016-Sep-28 19:32N 46°13' W 002°43'25 8.1
2016-Sep-28 16:27N 45°60' W 003°14'  
2016-Sep-26 02:34N 38°50' W 009°51'9 8.5
2016-Sep-26 01:34N 38°42' W 009°51'9 8.6
2016-Sep-26 00:34N 38°33' W 009°49'26 8.8
2016-Sep-25 21:34N 38°08' W 009°41'34 8.5
2016-Sep-25 17:33N 37°34' W 009°31'9 9.1
2016-Sep-25 16:34N 37°26' W 009°29'9 9.3
2016-Sep-25 15:33N 37°17' W 009°26'10 9.5
2016-Sep-25 14:33N 37°07' W 009°24'334 9.5
2016-Sep-24 03:21N 36°23' W 002°30'1110.2
2016-Sep-24 02:15N 36°25' W 002°17'95 4.8
2016-Sep-23 06:33N 37°32' W 000°52'11 5.5
2016-Sep-23 04:31N 37°32' W 000°37'5 5.5
2016-Sep-23 03:33N 37°35' W 000°32'6 5.5
2016-Sep-23 02:33N 37°37' W 000°25'6 5.7
2016-Sep-23 01:33N 37°39' W 000°18'6 5.8
2016-Sep-23 00:33N 37°40' W 000°11'7 5.7
2016-Sep-22 23:19N 37°42' W 000°03'17 5.6
2016-Sep-22 20:21N 37°45' E 000°18'103 6.4
2016-Sep-22 04:16N 38°10' E 002°24'5 6.8
2016-Sep-22 03:33N 38°12' E 002°30'20 6.6
2016-Sep-22 00:33N 38°18' E 002°54'6 6.4
2016-Sep-21 23:33N 38°20' E 003°02'  
Track history (hours):
 
Tides and Currents Weather Stations Pressure Air Temp Water Temp Dewpoint Dewpoint Depression Visibility Wind Speed Wind Dir Waves Ship Positions

Beltdiep

Last reported at 2016-Oct-01 20:31 UTC. Time now 2016-Oct-01 20:42 UTC.
Position N 46°30' W 001°48'.

Length 107 m; draft 5.5 m.

Type: Cargo ship. MMSI: 246671000.

Date/timePositionNaut miles runAvg speedWind from/ knotsBaromVisibWave heightAir tempDewpointWater temp
2016-Oct-01 20:31N 46°30' W 001°48'0 0.0
2016-Oct-01 15:31N 46°30' W 001°48'0 0.0
2016-Oct-01 14:31N 46°30' W 001°48'0 0.0
2016-Oct-01 13:31N 46°30' W 001°48'0 0.0
2016-Oct-01 04:33N 46°30' W 001°48'0 0.0
2016-Oct-01 03:33N 46°30' W 001°48'0 0.0
2016-Oct-01 00:33N 46°30' W 001°48'0 0.0
2016-Sep-30 22:33N 46°30' W 001°48'0 0.0
2016-Sep-30 20:32N 46°30' W 001°48'0 0.0
2016-Sep-30 17:32N 46°30' W 001°48'0 0.0
2016-Sep-30 16:32N 46°30' W 001°48'0 0.0
2016-Sep-30 14:32N 46°30' W 001°48'0 0.0
2016-Sep-30 13:32N 46°30' W 001°48'0 0.0
2016-Sep-30 10:32N 46°30' W 001°48'0 0.0
2016-Sep-30 08:32N 46°30' W 001°48'0 0.0
2016-Sep-30 06:32N 46°30' W 001°48'0 0.0
2016-Sep-30 03:32N 46°30' W 001°48'0 0.0
2016-Sep-30 02:32N 46°30' W 001°48'0 0.0
2016-Sep-29 23:32N 46°30' W 001°48'0 0.0
2016-Sep-29 21:32N 46°30' W 001°48'0 0.0
2016-Sep-29 20:32N 46°30' W 001°48'0 0.0
2016-Sep-29 19:32N 46°30' W 001°48'0 0.0
2016-Sep-29 16:32N 46°30' W 001°48'0 0.0
2016-Sep-29 15:32N 46°30' W 001°48'0 0.0
2016-Sep-29 14:32N 46°30' W 001°48'0 0.0
2016-Sep-29 13:32N 46°30' W 001°48'0 0.0
2016-Sep-29 08:32N 46°30' W 001°48'0 0.0
2016-Sep-29 07:32N 46°30' W 001°48'8 1.1
2016-Sep-29 00:33N 46°24' W 001°54'20 6.8
2016-Sep-28 21:32N 46°18' W 002°23'15 7.4
2016-Sep-28 19:32N 46°13' W 002°43'25 8.1
2016-Sep-28 16:27N 45°60' W 003°14'  
2016-Sep-26 02:34N 38°50' W 009°51'9 8.5
2016-Sep-26 01:34N 38°42' W 009°51'9 8.6
2016-Sep-26 00:34N 38°33' W 009°49'26 8.8
2016-Sep-25 21:34N 38°08' W 009°41'34 8.5
2016-Sep-25 17:33N 37°34' W 009°31'9 9.1
2016-Sep-25 16:34N 37°26' W 009°29'9 9.3
2016-Sep-25 15:33N 37°17' W 009°26'10 9.5
2016-Sep-25 14:33N 37°07' W 009°24'334 9.5
2016-Sep-24 03:21N 36°23' W 002°30'1110.2
2016-Sep-24 02:15N 36°25' W 002°17'95 4.8
2016-Sep-23 06:33N 37°32' W 000°52'11 5.5
2016-Sep-23 04:31N 37°32' W 000°37'5 5.5
2016-Sep-23 03:33N 37°35' W 000°32'6 5.5
2016-Sep-23 02:33N 37°37' W 000°25'6 5.7
2016-Sep-23 01:33N 37°39' W 000°18'6 5.8
2016-Sep-23 00:33N 37°40' W 000°11'7 5.7
2016-Sep-22 23:19N 37°42' W 000°03'17 5.6
2016-Sep-22 20:21N 37°45' E 000°18'103 6.4
2016-Sep-22 04:16N 38°10' E 002°24'5 6.8
2016-Sep-22 03:33N 38°12' E 002°30'20 6.6
2016-Sep-22 00:33N 38°18' E 002°54'6 6.4
2016-Sep-21 23:33N 38°20' E 003°02'  

Dump ship's entire track history